Time;durP1;ratioP1;P1;durP2;ratioP2;P2;SDS_P1;SDS_P2;PMS_P1;PMS_P2;Temp;Humidity;BMP_temperature;BMP_pressure;BME280_temperature;BME280_humidity;BME280_pressure;Samples;Min_cycle;Max_cycle;Signal;HPM_P1;HPM_P2
2024/04/06 00:01:54;;;;;;;2.25;0.80;;;14.10;99.90;;;;;;4837135;29;20446;-88
2024/04/06 00:04:23;;;;;;;2.95;0.80;;;14.10;99.90;;;;;;4856405;29;20038;-89
2024/04/06 00:06:50;;;;;;;2.63;0.50;;;14.10;99.90;;;;;;4858267;29;20113;-89
2024/04/06 00:09:18;;;;;;;2.58;1.00;;;14.10;99.90;;;;;;4847380;29;20037;-88
2024/04/06 00:11:45;;;;;;;3.60;1.13;;;14.10;99.90;;;;;;4848663;29;20036;-88
2024/04/06 00:14:18;;;;;;;2.55;1.00;;;14.20;99.90;;;;;;4841196;29;20041;-88
2024/04/06 00:16:45;;;;;;;2.70;0.88;;;14.10;99.90;;;;;;4848075;29;20109;-88
2024/04/06 00:19:13;;;;;;;2.55;0.70;;;14.10;99.90;;;;;;4835320;29;20638;-89
2024/04/06 00:21:40;;;;;;;3.67;1.65;;;14.10;99.90;;;;;;4843603;29;20702;-88
2024/04/06 00:24:08;;;;;;;2.20;1.00;;;14.10;99.90;;;;;;4853429;29;20041;-88
2024/04/06 00:26:35;;;;;;;2.95;1.00;;;14.10;99.90;;;;;;4844838;29;20045;-88
2024/04/06 00:29:04;;;;;;;4.28;1.50;;;14.00;99.90;;;;;;4842321;29;20048;-89
2024/04/06 00:31:32;;;;;;;4.32;1.00;;;13.90;99.90;;;;;;4843127;29;20529;-88
2024/04/06 00:34:01;;;;;;;4.43;1.33;;;14.00;99.90;;;;;;4837431;29;20595;-88
2024/04/06 00:36:28;;;;;;;2.75;1.42;;;14.00;99.90;;;;;;4849652;29;20054;-87
2024/04/06 00:38:56;;;;;;;3.22;1.20;;;14.00;99.90;;;;;;4835355;29;20546;-88
2024/04/06 00:41:23;;;;;;;3.40;1.48;;;13.90;99.90;;;;;;4830295;29;20039;-88
2024/04/06 00:43:50;;;;;;;7.13;1.73;;;13.80;99.90;;;;;;4838038;29;20045;-89
2024/04/06 00:46:17;;;;;;;2.97;1.45;;;13.80;99.90;;;;;;4838164;29;20060;-89
2024/04/06 00:48:47;;;;;;;4.60;2.10;;;13.80;99.90;;;;;;4837287;29;20041;-89
2024/04/06 00:51:14;;;;;;;5.95;2.20;;;13.70;99.90;;;;;;4836267;29;20045;-88
2024/04/06 00:53:43;;;;;;;4.80;1.90;;;13.80;99.90;;;;;;4843722;29;20076;-88
2024/04/06 00:56:10;;;;;;;8.57;2.13;;;13.70;99.90;;;;;;4842935;29;20048;-89
2024/04/06 00:58:39;;;;;;;3.70;1.80;;;13.80;99.90;;;;;;4850841;29;20116;-89
2024/04/06 01:01:06;;;;;;;6.63;2.20;;;13.70;99.90;;;;;;4854490;29;20081;-89
2024/04/06 01:03:34;;;;;;;18.90;8.68;;;13.70;99.90;;;;;;4828080;29;20037;-89
2024/04/06 01:06:03;;;;;;;25.98;12.07;;;13.80;99.90;;;;;;4856167;29;20511;-88
2024/04/06 01:08:31;;;;;;;22.23;10.40;;;13.80;99.90;;;;;;4834827;29;20121;-89
2024/04/06 01:11:00;;;;;;;17.75;8.93;;;13.80;99.90;;;;;;4839809;29;20045;-89
2024/04/06 01:13:28;;;;;;;8.88;4.80;;;13.80;99.90;;;;;;4850962;29;20481;-88
2024/04/06 01:15:55;;;;;;;9.20;3.33;;;13.80;99.90;;;;;;4837685;29;20049;-88
2024/04/06 01:18:24;;;;;;;5.03;2.22;;;13.80;99.90;;;;;;4851729;29;20084;-89
2024/04/06 01:20:53;;;;;;;3.90;2.17;;;13.70;99.90;;;;;;4832579;29;20037;-88
2024/04/06 01:23:23;;;;;;;4.53;2.20;;;13.70;99.90;;;;;;4854093;29;20132;-89
2024/04/06 01:25:51;;;;;;;5.47;2.15;;;13.70;99.90;;;;;;4851725;29;20140;-89
2024/04/06 01:28:19;;;;;;;3.45;1.48;;;13.60;99.90;;;;;;4856167;29;20112;-88
2024/04/06 01:30:46;;;;;;;4.88;1.58;;;13.70;99.90;;;;;;4840130;29;20689;-89
2024/04/06 01:33:14;;;;;;;5.95;1.90;;;13.60;99.90;;;;;;4853801;29;20132;-88
2024/04/06 01:35:41;;;;;;;6.22;1.50;;;13.60;99.90;;;;;;4839414;29;20064;-88
2024/04/06 01:38:09;;;;;;;4.25;1.40;;;13.60;99.90;;;;;;4854580;29;20057;-87
2024/04/06 01:40:36;;;;;;;3.33;1.38;;;13.60;99.90;;;;;;4839129;29;20041;-89
2024/04/06 01:43:06;;;;;;;3.95;1.42;;;13.60;99.90;;;;;;4838634;29;20099;-88
2024/04/06 01:45:34;;;;;;;5.95;1.67;;;13.50;99.90;;;;;;4839400;29;20171;-88
2024/04/06 01:48:01;;;;;;;6.13;2.08;;;13.50;99.90;;;;;;4840905;29;20049;-89
2024/04/06 01:50:28;;;;;;;4.80;1.83;;;13.40;99.90;;;;;;4838665;29;20045;-89
2024/04/06 01:52:56;;;;;;;3.85;2.28;;;13.30;99.90;;;;;;4842138;29;20129;-89
2024/04/06 01:55:23;;;;;;;7.30;2.28;;;13.40;99.90;;;;;;4855469;29;20513;-88
2024/04/06 01:57:57;;;;;;;5.15;1.95;;;13.40;99.90;;;;;;4840120;29;20131;-90
2024/04/06 02:00:25;;;;;;;4.65;2.45;;;13.40;99.90;;;;;;4847449;29;20049;-88
2024/04/06 02:02:54;;;;;;;5.65;2.60;;;13.30;99.90;;;;;;4851175;29;20045;-89
2024/04/06 02:05:21;;;;;;;4.93;2.50;;;13.30;99.90;;;;;;4839337;29;20498;-89
2024/04/06 02:07:48;;;;;;;6.80;3.13;;;13.30;99.90;;;;;;4843128;29;20494;-88
2024/04/06 02:10:15;;;;;;;6.63;3.22;;;13.30;99.90;;;;;;4825750;29;20483;-89
2024/04/06 02:12:44;;;;;;;6.90;2.78;;;13.30;99.90;;;;;;4846696;29;20502;-89
2024/04/06 02:15:11;;;;;;;5.72;3.30;;;13.20;99.90;;;;;;4857421;29;20152;-89
2024/04/06 02:17:41;;;;;;;7.25;3.20;;;13.20;99.90;;;;;;4839936;29;20051;-89
2024/04/06 02:20:09;;;;;;;6.93;3.17;;;13.10;99.90;;;;;;4838638;29;20078;-89
2024/04/06 02:22:37;;;;;;;7.88;3.25;;;13.10;99.90;;;;;;4841828;29;20502;-90
2024/04/06 02:25:04;;;;;;;6.22;3.38;;;13.10;99.90;;;;;;4847422;29;20120;-89
2024/04/06 02:27:33;;;;;;;9.15;4.13;;;13.10;99.90;;;;;;4852088;29;20055;-88
2024/04/06 02:30:00;;;;;;;9.30;3.85;;;13.10;99.90;;;;;;4841694;29;20352;-87
2024/04/06 02:32:28;;;;;;;7.20;3.90;;;13.10;99.90;;;;;;4847139;29;20037;-89
2024/04/06 02:34:57;;;;;;;7.80;4.70;;;13.20;99.90;;;;;;4845678;29;20140;-89
2024/04/06 02:37:25;;;;;;;8.13;3.65;;;13.20;99.90;;;;;;4840147;29;20076;-90
2024/04/06 02:39:52;;;;;;;5.68;3.42;;;13.20;99.90;;;;;;4836100;29;20045;-88
2024/04/06 02:42:20;;;;;;;8.07;3.30;;;13.20;99.90;;;;;;4838473;29;20069;-90
2024/04/06 02:44:46;;;;;;;7.72;4.07;;;13.20;99.90;;;;;;4857455;29;20045;-89
2024/04/06 02:47:15;;;;;;;8.82;3.63;;;13.20;99.90;;;;;;4843478;29;20045;-90
2024/04/06 02:49:42;;;;;;;7.18;3.33;;;13.20;99.90;;;;;;4833846;29;20037;-89
2024/04/06 02:52:11;;;;;;;6.43;2.85;;;13.20;99.90;;;;;;4846476;29;20050;-89
2024/04/06 02:54:38;;;;;;;9.20;2.95;;;13.10;99.90;;;;;;4836317;29;20060;-88
2024/04/06 02:57:06;;;;;;;6.32;3.58;;;13.10;99.90;;;;;;4857241;29;20124;-89
2024/04/06 02:59:33;;;;;;;9.13;3.35;;;13.10;99.90;;;;;;4843958;29;20057;-87
2024/04/06 03:02:01;;;;;;;7.43;3.30;;;13.10;99.90;;;;;;4843403;29;20033;-89
2024/04/06 03:04:28;;;;;;;9.15;3.80;;;13.10;99.90;;;;;;4842007;29;20861;-89
2024/04/06 03:06:56;;;;;;;9.13;4.10;;;13.10;99.90;;;;;;4844798;29;20074;-90
2024/04/06 03:09:24;;;;;;;7.63;3.25;;;13.10;99.90;;;;;;4842394;29;20048;-90
2024/04/06 03:11:52;;;;;;;6.90;2.90;;;13.10;99.90;;;;;;4841252;29;20041;-86
2024/04/06 03:14:19;;;;;;;9.02;3.63;;;13.10;99.90;;;;;;4861463;29;20037;-89
2024/04/06 03:16:47;;;;;;;7.07;2.92;;;13.10;99.90;;;;;;4834250;29;20048;-90
2024/04/06 03:19:14;;;;;;;9.15;2.60;;;13.10;99.90;;;;;;4831806;29;20056;-90
2024/04/06 03:21:42;;;;;;;5.88;2.28;;;13.10;99.90;;;;;;4838778;29;20045;-89
2024/04/06 03:24:09;;;;;;;6.53;2.67;;;13.10;99.90;;;;;;4843703;29;20041;-90
2024/04/06 03:26:41;;;;;;;6.10;2.90;;;13.10;99.90;;;;;;4855695;29;20338;-88
2024/04/06 03:29:08;;;;;;;6.47;3.17;;;13.10;99.90;;;;;;4831181;29;20120;-90
2024/04/06 03:31:36;;;;;;;4.22;2.03;;;13.00;99.90;;;;;;4843707;29;20061;-89
2024/04/06 03:34:03;;;;;;;5.50;2.05;;;13.10;99.90;;;;;;4843068;29;20109;-90
2024/04/06 03:36:30;;;;;;;5.47;2.47;;;13.00;99.90;;;;;;4846355;29;20390;-90
2024/04/06 03:38:59;;;;;;;4.55;1.98;;;13.10;99.90;;;;;;4837248;29;20104;-90
2024/04/06 03:41:27;;;;;;;4.53;2.50;;;13.10;99.90;;;;;;4840153;29;20048;-90
2024/04/06 03:43:57;;;;;;;8.52;2.80;;;13.10;99.90;;;;;;4855623;29;20132;-88
2024/04/06 03:46:28;;;;;;;8.02;3.30;;;12.90;99.90;;;;;;4836840;29;20074;-89
2024/04/06 03:48:56;;;;;;;4.82;2.60;;;13.40;99.90;;;;;;4834976;29;20046;-90
2024/04/06 03:51:23;;;;;;;4.32;2.08;;;13.00;99.90;;;;;;4823059;29;20053;-88
2024/04/06 03:53:52;;;;;;;4.00;2.30;;;13.00;99.90;;;;;;4838178;29;20042;-90
2024/04/06 03:56:19;;;;;;;8.63;2.38;;;13.00;99.90;;;;;;4826536;29;20050;-89
2024/04/06 03:58:47;;;;;;;3.50;2.17;;;13.00;99.90;;;;;;4839636;29;20056;-90
2024/04/06 04:01:15;;;;;;;6.13;2.38;;;12.90;99.90;;;;;;4819983;29;20077;-89
2024/04/06 04:03:43;;;;;;;6.97;1.98;;;12.90;99.90;;;;;;4823051;29;20444;-90
2024/04/06 04:06:10;;;;;;;6.55;2.40;;;13.00;99.90;;;;;;4826654;29;20045;-90
2024/04/06 04:08:38;;;;;;;4.35;2.50;;;12.90;99.90;;;;;;4825875;29;20054;-89
2024/04/06 04:11:05;;;;;;;9.10;2.40;;;12.80;99.90;;;;;;4827695;29;20082;-90
2024/04/06 04:13:33;;;;;;;4.55;1.88;;;12.90;99.90;;;;;;4826767;29;20048;-90
2024/04/06 04:16:00;;;;;;;6.82;2.38;;;12.90;99.90;;;;;;4837389;29;20486;-89
2024/04/06 04:18:29;;;;;;;4.60;2.42;;;12.90;99.90;;;;;;4835097;29;20052;-90
2024/04/06 04:20:56;;;;;;;5.60;2.05;;;12.90;99.90;;;;;;4826358;29;20302;-89
2024/04/06 04:23:25;;;;;;;4.30;2.70;;;12.90;99.90;;;;;;4850103;29;20093;-90
2024/04/06 04:25:52;;;;;;;4.55;2.25;;;12.80;99.90;;;;;;4820387;29;20146;-90
2024/04/06 04:28:19;;;;;;;5.00;2.95;;;12.90;99.90;;;;;;4841771;29;20049;-90
2024/04/06 04:30:46;;;;;;;4.05;2.55;;;12.90;99.90;;;;;;4839404;29;20052;-90
2024/04/06 04:33:15;;;;;;;5.68;2.47;;;12.80;99.90;;;;;;4829299;29;20046;-90
2024/04/06 04:35:43;;;;;;;4.72;2.05;;;12.80;99.90;;;;;;4825431;29;20094;-90
2024/04/06 04:38:11;;;;;;;5.35;2.30;;;12.80;99.90;;;;;;4823019;29;20091;-90
2024/04/06 04:40:39;;;;;;;4.22;2.67;;;12.90;99.90;;;;;;4829854;29;20046;-90
2024/04/06 04:43:06;;;;;;;4.70;2.80;;;12.80;99.90;;;;;;4828855;29;20052;-87
2024/04/06 04:45:34;;;;;;;7.25;3.30;;;12.80;99.90;;;;;;4835056;29;20903;-86
2024/04/06 04:48:01;;;;;;;6.63;3.35;;;12.80;99.90;;;;;;4846639;29;20116;-87
2024/04/06 04:50:29;;;;;;;7.97;2.92;;;12.90;99.90;;;;;;4835588;29;20049;-87
2024/04/06 04:52:59;;;;;;;7.95;2.80;;;12.90;99.90;;;;;;4840253;29;20533;-88
2024/04/06 04:55:27;;;;;;;5.65;2.92;;;12.90;99.90;;;;;;4851950;29;20117;-88
2024/04/06 04:57:54;;;;;;;4.57;3.25;;;12.90;99.90;;;;;;4836647;29;20057;-87
2024/04/06 05:00:24;;;;;;;10.32;3.50;;;12.90;99.90;;;;;;4852288;29;20045;-88
2024/04/06 05:02:50;;;;;;;6.55;3.22;;;12.90;99.90;;;;;;4850492;29;20116;-87
2024/04/06 05:05:18;;;;;;;7.43;2.67;;;13.00;99.90;;;;;;4836277;29;20168;-88
2024/04/06 05:07:45;;;;;;;7.65;2.95;;;13.00;99.90;;;;;;4836066;29;20045;-87
2024/04/06 05:10:16;;;;;;;6.95;3.78;;;13.00;99.90;;;;;;4837318;29;20516;-88
2024/04/06 05:12:43;;;;;;;9.55;3.38;;;13.10;99.90;;;;;;4844791;29;20088;-86
2024/04/06 05:15:11;;;;;;;7.93;2.70;;;13.10;99.90;;;;;;4836173;29;20060;-88
2024/04/06 05:17:37;;;;;;;7.72;3.50;;;13.10;99.90;;;;;;4839942;29;20498;-88
2024/04/06 05:20:06;;;;;;;6.40;2.58;;;13.10;99.90;;;;;;4836704;29;20059;-88
2024/04/06 05:22:33;;;;;;;6.47;3.10;;;13.20;99.90;;;;;;4833281;29;20734;-86
2024/04/06 05:25:01;;;;;;;6.57;3.13;;;13.20;99.90;;;;;;4852221;29;20048;-88
2024/04/06 05:27:29;;;;;;;5.68;2.90;;;13.20;99.90;;;;;;4834029;29;20045;-86
2024/04/06 05:29:58;;;;;;;4.35;2.65;;;13.30;99.90;;;;;;4835519;29;20038;-87
2024/04/06 05:32:24;;;;;;;9.07;3.22;;;13.30;99.90;;;;;;4836814;29;20750;-87
2024/04/06 05:34:52;;;;;;;10.93;3.13;;;13.30;99.90;;;;;;4840874;29;20276;-87
2024/04/06 05:37:19;;;;;;;8.32;3.67;;;13.40;99.90;;;;;;4851481;29;20049;-86
2024/04/06 05:39:48;;;;;;;8.68;4.43;;;13.40;99.90;;;;;;4839184;29;20061;-88
2024/04/06 05:42:15;;;;;;;10.98;4.93;;;13.50;99.90;;;;;;4841917;29;20045;-87
2024/04/06 05:44:44;;;;;;;7.18;3.40;;;13.50;99.90;;;;;;4835046;29;20056;-87
2024/04/06 05:47:11;;;;;;;9.98;3.92;;;13.50;99.90;;;;;;4837170;29;20056;-87
2024/04/06 05:49:39;;;;;;;8.00;3.58;;;13.60;99.90;;;;;;4840607;29;20065;-87
2024/04/06 05:52:06;;;;;;;8.57;3.85;;;13.60;99.90;;;;;;4841086;29;20048;-86
2024/04/06 05:54:34;;;;;;;5.88;2.75;;;13.60;99.90;;;;;;4838471;29;20054;-85
2024/04/06 05:57:01;;;;;;;7.70;3.70;;;13.60;99.90;;;;;;4843058;29;20061;-86
2024/04/06 05:59:29;;;;;;;7.38;2.80;;;13.70;99.90;;;;;;4837945;29;20080;-86
2024/04/06 06:01:57;;;;;;;6.68;2.83;;;13.70;99.90;;;;;;4838269;29;20052;-87
2024/04/06 06:04:26;;;;;;;8.48;3.53;;;13.80;99.90;;;;;;4841882;29;20060;-86
2024/04/06 06:06:53;;;;;;;7.35;4.15;;;13.70;99.90;;;;;;4838058;29;20161;-86
2024/04/06 06:09:21;;;;;;;13.45;3.72;;;13.80;99.90;;;;;;4843487;29;20688;-86
2024/04/06 06:11:47;;;;;;;8.75;4.28;;;13.90;99.90;;;;;;4836766;29;20047;-87
2024/04/06 06:14:15;;;;;;;9.13;4.70;;;13.90;99.90;;;;;;4847061;29;20029;-85
2024/04/06 06:16:42;;;;;;;9.77;5.00;;;14.00;99.90;;;;;;4844346;29;20041;-87
2024/04/06 06:19:11;;;;;;;8.88;4.65;;;13.90;99.90;;;;;;4842230;29;20088;-87
2024/04/06 06:21:38;;;;;;;8.52;3.65;;;14.00;99.90;;;;;;4853333;29;21851;-86
2024/04/06 06:24:06;;;;;;;6.85;3.75;;;14.00;99.90;;;;;;4854767;29;20052;-85
2024/04/06 06:26:33;;;;;;;7.85;3.63;;;14.00;99.90;;;;;;4852888;29;20306;-86
2024/04/06 06:29:01;;;;;;;5.93;3.55;;;14.10;99.90;;;;;;4851670;29;20083;-86
2024/04/06 06:31:28;;;;;;;5.97;2.92;;;14.10;99.90;;;;;;4838461;29;20049;-87
2024/04/06 06:33:57;;;;;;;6.38;3.50;;;14.10;99.90;;;;;;4840519;29;20069;-87
2024/04/06 06:36:27;;;;;;;5.18;2.70;;;14.10;99.90;;;;;;4838911;29;20037;-85
2024/04/06 06:38:57;;;;;;;7.70;3.50;;;14.20;99.90;;;;;;4856993;29;20436;-86
2024/04/06 06:41:23;;;;;;;7.13;3.92;;;14.20;99.90;;;;;;4836084;29;20061;-86
2024/04/06 06:43:51;;;;;;;6.80;3.58;;;14.30;99.90;;;;;;4839240;29;20052;-87
2024/04/06 06:46:18;;;;;;;6.47;3.78;;;14.40;99.90;;;;;;4835054;29;20049;-87
2024/04/06 06:48:47;;;;;;;6.32;3.53;;;14.50;99.90;;;;;;4841528;29;20164;-87
2024/04/06 06:51:13;;;;;;;9.55;4.13;;;14.60;99.90;;;;;;4840372;29;20037;-87
2024/04/06 06:53:43;;;;;;;9.18;3.78;;;14.70;99.90;;;;;;4840287;29;20079;-87
2024/04/06 06:56:10;;;;;;;10.45;3.60;;;14.80;99.90;;;;;;4838545;29;20038;-86
2024/04/06 06:58:38;;;;;;;5.82;3.40;;;14.80;99.90;;;;;;4834472;29;20041;-85
2024/04/06 07:01:04;;;;;;;5.63;3.67;;;14.90;99.90;;;;;;4830469;29;20050;-86
2024/04/06 07:03:32;;;;;;;6.55;3.78;;;14.90;99.90;;;;;;4835646;29;20049;-86
2024/04/06 07:05:59;;;;;;;6.57;3.90;;;15.10;99.90;;;;;;4837605;29;20057;-84
2024/04/06 07:08:27;;;;;;;6.93;3.35;;;15.10;99.90;;;;;;4840925;29;20057;-86
2024/04/06 07:10:55;;;;;;;6.38;3.95;;;15.20;99.90;;;;;;4843367;29;20044;-86
2024/04/06 07:13:23;;;;;;;8.52;4.00;;;15.30;99.90;;;;;;4836632;29;20029;-85
2024/04/06 07:15:49;;;;;;;6.43;4.13;;;15.40;99.90;;;;;;4834324;29;20046;-85
2024/04/06 07:18:17;;;;;;;7.72;4.00;;;15.40;99.90;;;;;;4833005;29;20180;-86
2024/04/06 07:20:44;;;;;;;8.82;4.57;;;15.40;99.90;;;;;;4837711;29;20053;-84
2024/04/06 07:23:11;;;;;;;6.88;3.90;;;15.50;99.90;;;;;;4838105;29;20113;-84
2024/04/06 07:25:38;;;;;;;6.57;4.03;;;15.50;99.90;;;;;;4838388;29;20156;-86
2024/04/06 07:28:08;;;;;;;10.73;4.07;;;15.60;99.90;;;;;;4836185;29;20045;-85
2024/04/06 07:30:35;;;;;;;6.82;4.05;;;15.60;99.90;;;;;;4823939;29;20634;-84
2024/04/06 07:33:03;;;;;;;9.10;4.20;;;15.70;99.90;;;;;;4833863;29;20128;-84
2024/04/06 07:35:30;;;;;;;6.68;4.03;;;15.80;99.90;;;;;;4839959;29;20136;-83
2024/04/06 07:37:58;;;;;;;6.00;4.15;;;15.90;99.90;;;;;;4843391;29;20037;-83
2024/04/06 07:40:25;;;;;;;8.52;4.03;;;16.00;99.90;;;;;;4845690;29;20096;-84
2024/04/06 07:42:53;;;;;;;6.68;3.80;;;16.00;99.90;;;;;;4834433;29;20044;-86
2024/04/06 07:45:21;;;;;;;6.70;4.18;;;16.10;99.90;;;;;;4823110;29;20405;-86
2024/04/06 07:47:50;;;;;;;4.80;3.67;;;16.10;99.90;;;;;;4831292;29;20045;-84
2024/04/06 07:50:17;;;;;;;7.07;4.05;;;16.20;99.90;;;;;;4845224;29;20073;-83
2024/04/06 07:52:45;;;;;;;8.32;4.45;;;16.30;99.90;;;;;;4839309;29;20052;-84
2024/04/06 07:55:12;;;;;;;6.35;4.22;;;16.40;99.90;;;;;;4850982;29;20052;-84
2024/04/06 07:57:41;;;;;;;9.65;4.72;;;16.40;99.90;;;;;;4828328;29;20053;-84
2024/04/06 08:00:08;;;;;;;8.32;4.20;;;16.50;99.90;;;;;;4837530;29;20062;-84
2024/04/06 08:02:38;;;;;;;7.30;4.35;;;16.60;99.90;;;;;;4838044;29;20520;-83
2024/04/06 08:05:06;;;;;;;6.45;4.10;;;16.40;99.90;;;;;;4838721;29;20050;-84
2024/04/06 08:07:34;;;;;;;7.05;4.22;;;16.70;99.90;;;;;;4835537;29;20053;-83
2024/04/06 08:10:13;;;;;;;12.30;4.68;;;16.90;99.90;;;;;;4854223;29;20502;-83
2024/04/06 08:12:42;;;;;;;7.60;4.72;;;16.90;99.90;;;;;;4831203;29;20073;-82
2024/04/06 08:15:10;;;;;;;6.75;3.75;;;17.10;99.90;;;;;;4850521;29;20533;-84
2024/04/06 08:17:42;;;;;;;7.63;4.85;;;17.10;99.90;;;;;;4835658;29;20045;-83
2024/04/06 08:20:09;;;;;;;8.20;4.43;;;17.20;99.90;;;;;;4850545;29;20192;-84
2024/04/06 08:22:37;;;;;;;5.43;3.80;;;17.30;99.90;;;;;;4858394;29;20040;-84
2024/04/06 08:25:05;;;;;;;7.75;3.72;;;17.30;99.90;;;;;;4837730;29;20143;-86
2024/04/06 08:27:33;;;;;;;9.40;4.40;;;17.30;99.90;;;;;;4834776;29;20130;-84
2024/04/06 08:29:59;;;;;;;9.48;3.42;;;17.50;99.90;;;;;;4834173;29;20043;-85
2024/04/06 08:32:30;;;;;;;14.27;5.07;;;17.50;99.90;;;;;;4841671;29;20140;-86
2024/04/06 08:34:58;;;;;;;7.22;4.13;;;17.70;99.90;;;;;;4846776;29;20255;-86
2024/04/06 08:37:27;;;;;;;9.32;4.43;;;17.80;99.90;;;;;;4838400;29;20046;-84
2024/04/06 08:39:53;;;;;;;7.82;4.25;;;17.70;99.90;;;;;;4835790;29;20092;-85
2024/04/06 08:42:23;;;;;;;8.68;3.97;;;17.90;99.90;;;;;;4816681;29;20137;-84
2024/04/06 08:44:50;;;;;;;9.02;3.83;;;17.90;99.90;;;;;;4858468;29;20060;-85
2024/04/06 08:47:22;;;;;;;11.15;4.03;;;18.00;99.90;;;;;;4837425;29;20124;-85
2024/04/06 08:49:49;;;;;;;9.48;4.53;;;18.00;99.90;;;;;;4854418;29;20094;-84
2024/04/06 08:52:19;;;;;;;10.65;4.18;;;18.00;99.90;;;;;;4831535;29;20109;-84
2024/04/06 08:54:46;;;;;;;9.90;4.05;;;18.00;99.90;;;;;;4848685;29;20133;-85
2024/04/06 08:57:14;;;;;;;8.57;3.67;;;18.20;99.90;;;;;;4845587;29;20061;-85
2024/04/06 08:59:41;;;;;;;8.85;4.43;;;18.50;99.90;;;;;;4838893;29;20147;-83
2024/04/06 09:02:09;;;;;;;10.00;4.63;;;18.90;99.90;;;;;;4835821;29;20057;-84
2024/04/06 09:04:36;;;;;;;6.60;4.05;;;18.90;99.90;;;;;;4833287;29;20102;-84
2024/04/06 09:07:04;;;;;;;7.63;3.20;;;19.00;99.90;;;;;;4835045;29;20721;-84
2024/04/06 09:09:36;;;;;;;12.88;4.28;;;19.00;99.90;;;;;;4844786;29;20042;-85
2024/04/06 09:12:04;;;;;;;7.82;3.85;;;19.10;99.90;;;;;;4841806;29;20077;-86
2024/04/06 09:14:31;;;;;;;9.90;3.47;;;19.40;99.90;;;;;;4838483;29;20049;-85
2024/04/06 09:17:00;;;;;;;8.80;3.63;;;19.40;99.90;;;;;;4849763;29;20124;-84
2024/04/06 09:19:27;;;;;;;6.18;3.88;;;19.60;99.90;;;;;;4840093;29;20502;-85
2024/04/06 09:21:57;;;;;;;7.88;3.83;;;19.60;99.90;;;;;;4834478;29;20046;-84
2024/04/06 09:24:26;;;;;;;7.65;3.97;;;19.70;99.90;;;;;;4824019;29;20140;-86
2024/04/06 09:27:06;;;;;;;8.82;3.72;;;19.80;99.90;;;;;;4842948;29;20140;-84
2024/04/06 09:29:34;;;;;;;7.97;3.80;;;19.90;99.90;;;;;;4852145;29;20586;-87
2024/04/06 09:32:04;;;;;;;7.15;3.75;;;20.00;99.90;;;;;;4843888;29;20123;-88
2024/04/06 09:34:31;;;;;;;11.82;4.32;;;20.10;99.90;;;;;;4836374;29;20053;-87
2024/04/06 09:37:03;;;;;;;7.88;3.40;;;20.10;99.90;;;;;;4859257;29;20068;-86
2024/04/06 09:39:32;;;;;;;6.40;3.35;;;20.10;99.90;;;;;;4838554;29;20053;-86
2024/04/06 09:42:00;;;;;;;7.50;2.95;;;20.20;99.90;;;;;;4842819;29;20049;-91
2024/04/06 09:44:30;;;;;;;5.38;2.20;;;20.20;99.90;;;;;;4843270;29;20597;-87
2024/04/06 09:46:57;;;;;;;6.25;2.08;;;20.20;99.90;;;;;;4850784;29;20041;-90
2024/04/06 09:49:25;;;;;;;5.32;2.13;;;20.20;99.60;;;;;;4824806;29;20052;-88
2024/04/06 09:51:52;;;;;;;5.95;2.42;;;20.40;99.90;;;;;;4836691;29;20041;-85
2024/04/06 09:54:21;;;;;;;5.63;2.47;;;20.50;99.40;;;;;;4827590;29;20106;-85
2024/04/06 09:56:48;;;;;;;7.90;2.30;;;20.60;99.50;;;;;;4836126;29;20042;-86
2024/04/06 09:59:24;;;;;;;4.50;1.70;;;20.80;98.30;;;;;;4850796;29;20059;-86
2024/04/06 10:01:57;;;;;;;7.43;2.03;;;20.80;97.70;;;;;;4848216;29;20065;-84
2024/04/06 10:04:25;;;;;;;5.82;1.95;;;20.80;98.50;;;;;;4836909;29;20042;-84
2024/04/06 10:06:55;;;;;;;5.32;2.03;;;21.00;97.40;;;;;;4843341;29;20591;-87
2024/04/06 10:09:29;;;;;;;6.55;2.00;;;21.00;97.00;;;;;;4856175;29;20045;-86
2024/04/06 10:12:01;;;;;;;2.75;1.38;;;21.20;97.00;;;;;;4839114;29;20053;-85
2024/04/06 10:14:29;;;;;;;5.13;1.40;;;21.20;97.10;;;;;;4835125;29;20049;-84
2024/04/06 10:17:09;;;;;;;3.75;1.52;;;21.20;96.00;;;;;;4836252;29;20047;-83
2024/04/06 10:19:39;;;;;;;2.95;1.30;;;21.40;96.10;;;;;;4841903;29;20135;-84
2024/04/06 10:22:07;;;;;;;2.47;1.00;;;21.60;95.70;;;;;;4842635;29;20038;-84
2024/04/06 10:24:35;;;;;;;3.60;1.00;;;21.70;94.70;;;;;;4841366;29;20045;-85
2024/04/06 10:27:04;;;;;;;2.55;1.30;;;22.00;94.20;;;;;;4853232;29;20049;-82
2024/04/06 10:29:31;;;;;;;3.22;1.20;;;22.00;94.30;;;;;;4835009;29;20052;-84
2024/04/06 10:32:00;;;;;;;4.85;1.00;;;21.90;92.50;;;;;;4842988;29;20053;-85
2024/04/06 10:34:28;;;;;;;3.95;1.10;;;21.90;94.10;;;;;;4845306;29;20053;-84
2024/04/06 10:36:56;;;;;;;4.90;0.88;;;21.90;93.80;;;;;;4844134;29;20045;-85
2024/04/06 10:39:24;;;;;;;2.28;1.40;;;21.90;93.40;;;;;;4842642;29;20057;-85
2024/04/06 10:41:53;;;;;;;5.05;1.00;;;21.80;92.70;;;;;;4843574;29;20046;-83
2024/04/06 10:44:20;;;;;;;3.55;1.05;;;21.70;92.10;;;;;;4832028;29;20057;-84
2024/04/06 10:46:48;;;;;;;3.55;1.15;;;21.70;92.40;;;;;;4854771;29;20040;-84
2024/04/06 10:49:15;;;;;;;4.10;1.10;;;21.70;93.00;;;;;;4855377;29;20136;-82
2024/04/06 10:51:44;;;;;;;3.17;1.13;;;21.90;92.80;;;;;;4844881;29;20485;-85
2024/04/06 10:54:12;;;;;;;3.60;1.23;;;22.10;93.30;;;;;;4852538;29;20040;-83
2024/04/06 10:56:41;;;;;;;3.65;0.75;;;22.30;92.50;;;;;;4847578;29;20493;-84
2024/04/06 10:59:10;;;;;;;7.95;0.90;;;22.20;90.90;;;;;;4856594;29;20145;-88
2024/04/06 11:01:40;;;;;;;4.00;0.90;;;22.50;91.60;;;;;;4832929;29;20140;-85
2024/04/06 11:04:11;;;;;;;2.17;1.00;;;22.70;90.90;;;;;;4837412;29;20053;-88
2024/04/06 11:06:39;;;;;;;5.55;0.90;;;23.00;91.10;;;;;;4836932;29;20438;-85
2024/04/06 11:09:10;;;;;;;1.33;0.65;;;23.20;89.80;;;;;;4829292;29;20041;-85
2024/04/06 11:11:39;;;;;;;3.33;0.52;;;23.20;87.80;;;;;;4838381;29;20071;-85
2024/04/06 11:14:08;;;;;;;2.42;0.70;;;23.50;87.80;;;;;;4848361;29;20045;-85
2024/04/06 11:16:36;;;;;;;4.05;0.70;;;23.40;88.90;;;;;;4852290;29;20160;-84
2024/04/06 11:19:03;;;;;;;5.22;1.17;;;23.50;88.00;;;;;;4845476;29;20068;-83
2024/04/06 11:21:31;;;;;;;6.60;0.90;;;23.40;84.90;;;;;;4847261;29;20045;-85
2024/04/06 11:23:58;;;;;;;7.97;1.33;;;23.30;86.90;;;;;;4840720;29;20050;-85
2024/04/06 11:26:27;;;;;;;4.90;0.98;;;23.60;86.00;;;;;;4837615;29;20049;-85
2024/04/06 11:28:54;;;;;;;4.05;0.70;;;23.80;85.50;;;;;;4857247;29;20045;-86
2024/04/06 11:31:22;;;;;;;3.10;0.70;;;23.90;86.20;;;;;;4833457;29;20052;-85
2024/04/06 11:33:49;;;;;;;2.20;0.85;;;24.00;87.70;;;;;;4836017;29;20063;-85
2024/04/06 11:36:18;;;;;;;2.13;0.90;;;24.00;85.70;;;;;;4850922;29;20113;-85
2024/04/06 11:38:44;;;;;;;2.25;0.60;;;23.90;86.40;;;;;;4850711;29;20045;-83
2024/04/06 11:41:13;;;;;;;1.83;0.50;;;24.00;85.90;;;;;;4843964;29;20409;-83
2024/04/06 11:43:41;;;;;;;2.25;0.50;;;24.20;84.60;;;;;;4833034;29;20045;-83
2024/04/06 11:46:09;;;;;;;3.50;0.65;;;24.10;80.70;;;;;;4836627;29;20056;-83
2024/04/06 11:48:36;;;;;;;1.65;0.40;;;24.00;77.40;;;;;;4833215;29;20045;-83
2024/04/06 11:51:04;;;;;;;1.02;0.32;;;23.90;78.70;;;;;;4838740;29;20041;-84
2024/04/06 11:53:34;;;;;;;3.88;0.32;;;23.90;80.10;;;;;;4839801;29;20040;-84
2024/04/06 11:56:02;;;;;;;1.88;0.75;;;24.10;76.70;;;;;;4850803;29;20126;-85
2024/04/06 11:58:28;;;;;;;1.10;0.43;;;24.20;77.80;;;;;;4853841;29;20148;-83
2024/04/06 12:00:59;;;;;;;5.78;0.60;;;24.40;77.60;;;;;;4850586;29;20053;-83
2024/04/06 12:03:25;;;;;;;1.45;0.40;;;24.00;77.10;;;;;;4839286;29;20105;-83
2024/04/06 12:05:54;;;;;;;4.75;0.75;;;24.20;80.30;;;;;;4838485;29;20557;-85
2024/04/06 12:08:21;;;;;;;1.65;0.40;;;24.10;77.50;;;;;;4842120;29;20413;-87
2024/04/06 12:10:48;;;;;;;1.25;0.77;;;24.40;79.80;;;;;;4835188;29;20041;-83
2024/04/06 12:13:15;;;;;;;1.75;0.40;;;24.50;76.70;;;;;;4831001;29;20570;-86
2024/04/06 12:15:43;;;;;;;2.10;0.22;;;24.70;77.40;;;;;;4848180;29;20136;-88
2024/04/06 12:18:12;;;;;;;2.17;0.50;;;24.80;76.70;;;;;;4838389;29;20136;-86
2024/04/06 12:20:41;;;;;;;2.90;0.80;;;24.30;76.20;;;;;;4847931;29;20040;-84
2024/04/06 12:23:08;;;;;;;2.75;0.43;;;24.10;76.90;;;;;;4846924;29;20494;-84
2024/04/06 12:25:37;;;;;;;2.78;0.60;;;24.50;78.80;;;;;;4857568;29;20149;-83
2024/04/06 12:28:04;;;;;;;3.67;0.70;;;24.80;76.70;;;;;;4836632;29;20056;-85
2024/04/06 12:30:33;;;;;;;1.75;0.47;;;25.00;76.00;;;;;;4850777;29;20061;-86
2024/04/06 12:32:59;;;;;;;3.20;0.40;;;25.00;79.30;;;;;;4837970;29;20041;-87
2024/04/06 12:35:28;;;;;;;2.30;0.55;;;24.70;77.40;;;;;;4841685;29;20132;-85
2024/04/06 12:37:55;;;;;;;1.65;0.60;;;24.60;77.90;;;;;;4836136;29;20038;-84
2024/04/06 12:40:25;;;;;;;2.28;0.60;;;24.40;76.70;;;;;;4830454;29;20041;-84
2024/04/06 12:42:53;;;;;;;1.65;0.52;;;24.60;79.20;;;;;;4833417;29;20049;-84
2024/04/06 12:45:22;;;;;;;0.80;0.40;;;24.40;77.40;;;;;;4834282;29;20069;-84
2024/04/06 12:47:49;;;;;;;3.08;0.80;;;24.30;78.80;;;;;;4847608;29;20053;-85
2024/04/06 12:50:17;;;;;;;1.73;0.25;;;24.50;78.00;;;;;;4855492;29;20053;-86